Time;durP1;ratioP1;P1;durP2;ratioP2;P2;SDS_P1;SDS_P2;PMS_P1;PMS_P2;Temp;Humidity;BMP_temperature;BMP_pressure;BME280_temperature;BME280_humidity;BME280_pressure;Samples;Min_cycle;Max_cycle;Signal;HPM_P1;HPM_P2
2022/03/22 00:00:19;;;;;;;44.95;29.27;;;6.10;79.50;;;;;;5064486;28;20039;-79
2022/03/22 00:02:45;;;;;;;42.22;29.08;;;6.10;79.50;;;;;;5097744;28;20045;-79
2022/03/22 00:05:11;;;;;;;43.35;29.35;;;6.00;79.70;;;;;;5080866;28;20470;-79
2022/03/22 00:07:36;;;;;;;44.05;30.30;;;6.10;79.70;;;;;;5080793;28;20112;-79
2022/03/22 00:10:03;;;;;;;40.72;28.90;;;6.10;79.90;;;;;;5080650;28;20195;-79
2022/03/22 00:12:29;;;;;;;44.08;30.15;;;6.10;79.90;;;;;;5080931;28;20138;-79
2022/03/22 00:14:55;;;;;;;45.45;30.60;;;6.10;79.80;;;;;;5097500;28;20474;-79
2022/03/22 00:17:21;;;;;;;46.42;29.40;;;6.10;79.90;;;;;;5080882;28;20047;-79
2022/03/22 00:19:47;;;;;;;41.85;29.50;;;6.10;80.00;;;;;;5097354;28;20043;-79
2022/03/22 00:22:14;;;;;;;47.20;29.73;;;6.10;80.20;;;;;;5097330;28;20039;-79
2022/03/22 00:24:41;;;;;;;45.33;29.38;;;6.10;80.10;;;;;;5080026;28;20449;-79
2022/03/22 00:27:07;;;;;;;44.08;29.02;;;6.10;80.00;;;;;;5062751;28;20043;-79
2022/03/22 00:29:34;;;;;;;45.22;30.98;;;6.00;80.30;;;;;;5080158;28;20126;-79
2022/03/22 00:32:00;;;;;;;46.42;29.52;;;6.00;80.00;;;;;;5063727;28;20484;-78
2022/03/22 00:34:25;;;;;;;42.95;29.40;;;6.10;80.50;;;;;;5080617;28;20157;-79
2022/03/22 00:36:52;;;;;;;45.53;30.73;;;6.00;80.30;;;;;;5080487;28;20538;-79
2022/03/22 00:39:18;;;;;;;42.88;29.13;;;6.00;80.40;;;;;;5064086;28;20404;-79
2022/03/22 00:41:44;;;;;;;46.05;31.33;;;6.00;80.20;;;;;;5097166;28;20089;-79
2022/03/22 00:44:11;;;;;;;44.42;30.73;;;6.00;80.60;;;;;;5080016;28;20095;-79
2022/03/22 00:46:37;;;;;;;47.60;31.20;;;6.00;80.30;;;;;;5096875;28;20071;-79
2022/03/22 00:49:03;;;;;;;44.55;31.10;;;5.90;80.20;;;;;;5096780;28;20101;-79
2022/03/22 00:51:29;;;;;;;50.78;32.47;;;5.90;80.60;;;;;;5096464;28;20048;-79
2022/03/22 00:53:59;;;;;;;42.63;29.98;;;5.90;80.50;;;;;;5096736;28;20073;-78
2022/03/22 00:56:25;;;;;;;45.97;30.23;;;5.90;80.80;;;;;;5096258;28;20391;-79
2022/03/22 01:00:01;;;;;;;46.05;30.65;;;5.90;80.90;;;;;;5096707;28;20038;-79
2022/03/22 01:01:37;;;;;;;46.65;30.80;;;5.90;81.30;;;;;;5096744;28;20082;-79
2022/03/22 01:04:04;;;;;;;43.28;31.70;;;5.90;80.70;;;;;;5063012;28;20509;-79
2022/03/22 01:06:30;;;;;;;48.22;31.63;;;5.90;81.00;;;;;;5079535;28;20495;-79
2022/03/22 01:08:56;;;;;;;45.42;31.77;;;5.90;80.70;;;;;;5079862;28;20075;-79
2022/03/22 01:11:22;;;;;;;47.75;31.08;;;5.80;80.70;;;;;;5096392;28;20552;-79
2022/03/22 01:13:48;;;;;;;49.50;33.60;;;5.80;81.10;;;;;;5096572;28;20039;-79
2022/03/22 01:16:15;;;;;;;49.47;34.25;;;5.80;81.10;;;;;;5079308;28;20399;-79
2022/03/22 01:18:41;;;;;;;50.25;34.53;;;5.80;80.90;;;;;;5096265;28;20050;-79
2022/03/22 01:21:08;;;;;;;43.78;32.20;;;5.80;80.70;;;;;;5079241;28;20118;-79
2022/03/22 01:23:34;;;;;;;47.40;32.97;;;5.80;80.70;;;;;;5095880;28;20063;-79
2022/03/22 01:26:00;;;;;;;45.67;32.10;;;5.70;81.00;;;;;;5079102;28;20047;-79
2022/03/22 01:28:26;;;;;;;49.13;33.53;;;5.70;81.20;;;;;;5079236;28;20079;-79
2022/03/22 01:30:53;;;;;;;48.03;33.03;;;5.70;81.50;;;;;;5079598;28;20044;-79
2022/03/22 01:33:19;;;;;;;46.65;33.97;;;5.70;81.80;;;;;;5096246;28;20508;-79
2022/03/22 01:35:44;;;;;;;45.95;33.28;;;5.70;82.00;;;;;;5095808;28;20507;-79
2022/03/22 01:38:11;;;;;;;47.05;32.60;;;5.70;82.30;;;;;;5095806;28;20088;-79
2022/03/22 01:40:37;;;;;;;47.08;33.17;;;5.70;82.40;;;;;;5096123;28;20040;-79
2022/03/22 01:43:04;;;;;;;52.70;34.72;;;5.70;82.50;;;;;;5095625;28;20067;-79
2022/03/22 01:45:30;;;;;;;49.92;33.90;;;5.70;82.60;;;;;;5095620;28;20096;-79
2022/03/22 01:48:01;;;;;;;52.88;33.75;;;5.80;82.50;;;;;;5078756;28;20035;-79
2022/03/22 01:50:27;;;;;;;49.97;33.38;;;5.80;82.20;;;;;;5095717;28;20043;-79
2022/03/22 01:52:56;;;;;;;51.45;33.30;;;5.80;82.60;;;;;;5095598;28;20039;-79
2022/03/22 01:55:23;;;;;;;49.90;35.75;;;5.80;82.60;;;;;;5095436;28;20047;-79
2022/03/22 01:57:49;;;;;;;52.40;34.92;;;5.70;82.00;;;;;;5095480;28;20044;-79
2022/03/22 02:00:20;;;;;;;51.05;34.83;;;5.70;81.90;;;;;;5095695;28;20040;-79
2022/03/22 02:05:51;;;;;;;51.17;35.88;;;5.70;82.20;;;;;;5095886;28;20050;-79
2022/03/22 02:08:18;;;;;;;;;;;5.70;82.60;;;;;;5096152;28;20122;-79
2022/03/22 02:10:44;;;;;;;49.55;33.33;;;5.70;83.20;;;;;;5095464;28;20006;-79
2022/03/22 02:13:11;;;;;;;51.00;34.83;;;5.70;82.50;;;;;;5095561;28;20438;-79
2022/03/22 02:15:37;;;;;;;52.78;35.47;;;5.70;82.00;;;;;;5078375;28;20392;-79
2022/03/22 02:18:03;;;;;;;48.80;35.05;;;5.60;82.40;;;;;;5095267;28;20032;-79
2022/03/22 02:20:29;;;;;;;57.30;36.22;;;5.60;82.70;;;;;;5095273;28;20135;-78
2022/03/22 02:23:03;;;;;;;49.92;34.95;;;5.70;82.90;;;;;;5095388;28;20059;-78
2022/03/22 02:25:28;;;;;;;48.70;34.17;;;5.70;82.90;;;;;;5095464;28;20097;-78
2022/03/22 02:27:54;;;;;;;46.33;33.13;;;5.70;82.60;;;;;;5095112;28;20487;-79
2022/03/22 02:30:21;;;;;;;51.22;34.17;;;5.70;82.90;;;;;;5078440;28;20043;-78
2022/03/22 02:32:51;;;;;;;47.90;34.25;;;5.70;82.90;;;;;;5095429;28;20040;-78
2022/03/22 02:35:18;;;;;;;52.05;36.17;;;5.70;82.50;;;;;;5095083;28;20042;-79
2022/03/22 02:37:45;;;;;;;52.42;35.28;;;5.70;83.10;;;;;;5078190;28;20043;-79
2022/03/22 02:40:13;;;;;;;51.60;34.58;;;5.70;82.80;;;;;;5095266;28;20075;-79
2022/03/22 02:42:43;;;;;;;51.08;34.72;;;5.70;82.80;;;;;;5078790;28;20403;-79
2022/03/22 02:45:11;;;;;;;46.33;34.28;;;5.70;82.60;;;;;;5095139;28;20039;-79
2022/03/22 02:47:41;;;;;;;49.70;34.88;;;5.70;82.70;;;;;;5095005;28;20639;-79
2022/03/22 02:50:08;;;;;;;47.78;33.72;;;5.70;82.80;;;;;;5095386;28;20048;-79
2022/03/22 02:52:35;;;;;;;49.88;34.70;;;5.70;82.90;;;;;;5095010;28;20126;-79
2022/03/22 02:55:02;;;;;;;48.17;33.00;;;5.70;82.90;;;;;;5094856;28;20126;-79
2022/03/22 02:57:27;;;;;;;49.55;34.38;;;5.70;83.00;;;;;;5094765;28;20069;-79
2022/03/22 02:59:53;;;;;;;48.28;34.55;;;5.60;82.90;;;;;;5095018;28;20039;-79
2022/03/22 03:02:19;;;;;;;47.90;34.60;;;5.70;83.00;;;;;;5078033;28;20093;-79
2022/03/22 03:04:45;;;;;;;48.00;33.30;;;5.60;83.00;;;;;;5077987;28;20104;-79
2022/03/22 03:07:10;;;;;;;51.58;36.58;;;5.60;83.10;;;;;;5077796;28;20108;-79
2022/03/22 03:09:36;;;;;;;53.13;36.20;;;5.60;83.10;;;;;;5094709;28;20039;-79
2022/03/22 03:12:02;;;;;;;49.60;35.63;;;5.60;82.60;;;;;;5094639;28;20502;-79
2022/03/22 03:14:40;;;;;;;53.15;36.13;;;5.60;82.70;;;;;;5078678;28;20043;-79
2022/03/22 03:17:08;;;;;;;53.25;37.38;;;5.60;82.80;;;;;;5098583;28;20046;-79
2022/03/22 03:19:34;;;;;;;45.15;34.00;;;5.60;83.20;;;;;;5081945;28;20046;-79
2022/03/22 03:22:00;;;;;;;48.65;36.17;;;5.60;83.40;;;;;;5098811;28;20039;-79
2022/03/22 03:24:26;;;;;;;51.38;37.85;;;5.60;83.40;;;;;;5098285;28;20487;-79
2022/03/22 03:26:51;;;;;;;50.30;37.17;;;5.50;83.40;;;;;;5081049;28;20501;-79
2022/03/22 03:29:17;;;;;;;50.45;35.80;;;5.50;83.40;;;;;;5098487;28;20040;-78
2022/03/22 03:31:43;;;;;;;53.92;36.03;;;5.50;83.40;;;;;;5098326;28;20032;-79
2022/03/22 03:34:09;;;;;;;56.15;38.58;;;5.40;83.60;;;;;;5098461;28;20127;-79
2022/03/22 03:36:36;;;;;;;55.00;36.97;;;5.40;83.70;;;;;;5098043;28;20039;-79
2022/03/22 03:39:04;;;;;;;51.50;36.53;;;5.40;83.50;;;;;;5098154;28;20496;-79
2022/03/22 03:47:05;;;;;;;57.47;35.80;;;5.40;84.50;;;;;;5098024;28;19916;-79
2022/03/22 03:49:40;;;;;;;58.08;39.75;;;5.40;84.30;;;;;;5097949;28;20043;-79
2022/03/22 03:52:11;;;;;;;51.75;37.22;;;5.40;84.10;;;;;;5098180;28;20051;-79
2022/03/22 03:54:37;;;;;;;55.88;37.47;;;5.50;84.00;;;;;;5097766;28;20519;-79
2022/03/22 03:57:04;;;;;;;52.65;36.58;;;5.40;84.20;;;;;;5097687;28;20046;-79
2022/03/22 03:59:29;;;;;;;51.47;37.67;;;5.40;84.20;;;;;;5097989;28;20054;-79
2022/03/22 04:01:55;;;;;;;54.58;37.10;;;5.30;84.20;;;;;;5080837;28;20488;-79
2022/03/22 04:04:22;;;;;;;52.67;37.13;;;5.40;84.30;;;;;;5097958;28;20035;-79
2022/03/22 04:06:48;;;;;;;47.40;33.50;;;5.40;84.20;;;;;;5080710;28;20484;-79
2022/03/22 04:09:17;;;;;;;55.60;37.40;;;5.40;84.20;;;;;;5047952;28;20052;-79
2022/03/22 04:11:44;;;;;;;52.72;37.22;;;5.40;84.20;;;;;;5097870;28;20046;-78
2022/03/22 04:14:12;;;;;;;53.78;37.60;;;5.40;84.40;;;;;;5080636;28;20571;-78
2022/03/22 04:16:38;;;;;;;55.65;39.47;;;5.40;84.30;;;;;;5097021;28;20082;-78
2022/03/22 04:19:05;;;;;;;58.80;38.55;;;5.40;84.30;;;;;;5080866;28;20071;-79
2022/03/22 04:21:34;;;;;;;55.95;38.28;;;5.40;84.40;;;;;;5097436;28;20058;-79
2022/03/22 04:24:01;;;;;;;55.33;38.28;;;5.30;84.30;;;;;;5097246;28;20081;-79
2022/03/22 04:26:27;;;;;;;58.20;38.95;;;5.30;84.50;;;;;;5096594;28;20042;-78
2022/03/22 04:34:21;;;;;;;57.88;36.95;;;5.20;84.50;;;;;;5097115;28;20579;-79
2022/03/22 04:36:55;;;;;;;52.55;38.28;;;5.30;84.60;;;;;;5096854;28;20122;-78
2022/03/22 04:39:29;;;;;;;57.65;38.75;;;5.30;84.60;;;;;;5080133;28;20035;-79
2022/03/22 04:41:56;;;;;;;57.80;37.95;;;5.30;84.80;;;;;;5097052;28;20043;-78
2022/03/22 04:44:23;;;;;;;51.25;37.15;;;5.30;84.90;;;;;;5097162;28;20053;-78
2022/03/22 04:46:49;;;;;;;53.97;39.00;;;5.30;84.80;;;;;;5080236;28;20104;-79
2022/03/22 04:49:15;;;;;;;55.20;38.55;;;5.30;85.00;;;;;;5063430;28;20043;-78
2022/03/22 04:57:09;;;;;;;54.45;37.53;;;5.20;85.00;;;;;;5082369;28;20052;-78
2022/03/22 04:59:35;;;;;;;52.25;36.53;;;5.20;85.00;;;;;;5079757;28;20035;-78
2022/03/22 05:02:00;;;;;;;51.90;36.35;;;5.10;84.90;;;;;;5096531;28;20039;-79
2022/03/22 05:04:26;;;;;;;56.30;39.08;;;5.10;85.00;;;;;;5079848;28;20075;-79
2022/03/22 05:06:52;;;;;;;53.35;37.50;;;5.10;84.80;;;;;;5096393;28;20491;-79
2022/03/22 05:09:18;;;;;;;57.72;38.92;;;5.10;84.70;;;;;;5079356;28;20050;-79
2022/03/22 05:11:44;;;;;;;52.30;38.25;;;5.10;84.80;;;;;;5062867;28;20122;-79
2022/03/22 05:14:11;;;;;;;58.15;39.05;;;5.10;84.90;;;;;;5062823;28;20136;-78
2022/03/22 05:16:36;;;;;;;56.47;38.08;;;5.00;85.10;;;;;;5096114;28;20040;-78
2022/03/22 05:19:06;;;;;;;55.88;38.00;;;5.00;85.10;;;;;;5062901;28;20035;-79
2022/03/22 05:21:32;;;;;;;60.13;40.03;;;5.00;85.20;;;;;;5063009;28;20067;-78
2022/03/22 05:23:59;;;;;;;53.22;37.38;;;5.00;85.10;;;;;;5095911;28;20063;-79
2022/03/22 05:26:28;;;;;;;55.42;37.75;;;5.00;85.20;;;;;;5096280;28;20050;-78
2022/03/22 05:28:54;;;;;;;55.20;40.10;;;5.00;85.30;;;;;;5079141;28;20035;-79
2022/03/22 05:31:21;;;;;;;57.65;38.38;;;5.00;85.30;;;;;;5078963;28;20043;-79
2022/03/22 05:33:52;;;;;;;54.92;36.42;;;5.00;85.40;;;;;;5095754;28;20856;-79
2022/03/22 05:36:18;;;;;;;59.50;39.15;;;5.00;85.60;;;;;;5078408;28;20046;-79
2022/03/22 05:38:44;;;;;;;58.05;40.33;;;5.00;85.70;;;;;;5094429;28;20398;-78
2022/03/22 05:41:10;;;;;;;58.72;39.88;;;5.00;85.50;;;;;;5062157;28;20046;-79
2022/03/22 05:43:36;;;;;;;60.55;42.80;;;5.00;85.60;;;;;;5078924;28;20046;-80
2022/03/22 05:46:03;;;;;;;54.95;40.03;;;5.00;85.50;;;;;;5095776;28;20051;-79
2022/03/22 05:48:30;;;;;;;60.00;40.03;;;5.00;85.60;;;;;;5095883;28;20449;-78
2022/03/22 05:50:56;;;;;;;56.15;38.33;;;5.00;85.40;;;;;;5095545;28;20051;-79
2022/03/22 05:53:22;;;;;;;55.33;39.42;;;5.00;85.40;;;;;;5095552;28;20053;-79
2022/03/22 05:55:48;;;;;;;60.60;39.40;;;5.00;85.40;;;;;;5078520;28;20078;-79
2022/03/22 05:58:14;;;;;;;63.72;40.25;;;4.90;85.30;;;;;;5078563;28;20031;-79
2022/03/22 06:00:40;;;;;;;57.83;39.22;;;4.90;85.50;;;;;;5078823;28;20040;-79
2022/03/22 06:03:06;;;;;;;59.97;40.85;;;4.90;85.60;;;;;;5078649;28;20067;-79
2022/03/22 06:05:32;;;;;;;62.80;41.08;;;4.90;85.70;;;;;;5062033;28;20086;-78
2022/03/22 06:07:59;;;;;;;65.15;43.00;;;4.90;85.80;;;;;;5061887;28;20040;-79
2022/03/22 06:10:27;;;;;;;61.85;41.20;;;5.00;85.80;;;;;;5062089;28;20383;-79
2022/03/22 06:12:54;;;;;;;60.40;41.67;;;5.00;85.70;;;;;;5095284;28;20043;-80
2022/03/22 06:15:25;;;;;;;61.03;41.28;;;5.00;85.70;;;;;;5095161;28;20080;-80
2022/03/22 06:17:52;;;;;;;65.88;40.05;;;5.10;85.70;;;;;;5095280;28;20499;-79
2022/03/22 06:20:21;;;;;;;61.28;41.15;;;5.10;85.60;;;;;;5094870;28;20040;-80
2022/03/22 06:22:48;;;;;;;64.20;43.55;;;5.10;85.40;;;;;;5094166;28;20089;-79
2022/03/22 06:25:15;;;;;;;63.38;42.63;;;5.10;85.50;;;;;;5077830;28;20092;-79
2022/03/22 06:27:43;;;;;;;64.88;43.33;;;5.10;85.70;;;;;;5094924;28;20043;-80
2022/03/22 06:30:15;;;;;;;58.70;40.28;;;5.20;85.70;;;;;;5095065;28;20039;-80
2022/03/22 06:32:49;;;;;;;65.07;44.28;;;5.30;85.40;;;;;;5094939;28;20486;-80
2022/03/22 06:35:16;;;;;;;62.10;43.78;;;5.30;85.50;;;;;;5095406;28;20097;-78
2022/03/22 06:37:43;;;;;;;68.57;46.90;;;5.40;85.40;;;;;;5095132;28;20040;-80
2022/03/22 06:40:10;;;;;;;64.13;43.25;;;5.40;85.60;;;;;;5094969;28;20040;-80
2022/03/22 06:42:36;;;;;;;61.80;43.40;;;5.50;85.90;;;;;;5078459;28;20383;-80
2022/03/22 06:45:05;;;;;;;57.28;40.33;;;5.60;85.90;;;;;;5078168;28;20048;-80
2022/03/22 06:47:31;;;;;;;64.22;44.10;;;5.60;85.60;;;;;;5061950;28;20047;-80
2022/03/22 06:49:57;;;;;;;53.85;36.30;;;5.60;85.60;;;;;;5096816;28;20157;-80
2022/03/22 06:52:23;;;;;;;62.38;43.35;;;5.70;85.20;;;;;;5099063;28;20055;-80
2022/03/22 06:54:49;;;;;;;60.38;41.78;;;5.70;85.40;;;;;;5065677;28;20055;-80
2022/03/22 06:57:15;;;;;;;64.85;44.17;;;5.80;85.60;;;;;;5098953;28;20042;-80
2022/03/22 06:59:41;;;;;;;44.80;32.22;;;5.90;85.50;;;;;;5098985;28;20035;-80
2022/03/22 07:02:08;;;;;;;54.15;38.60;;;6.00;85.70;;;;;;5099138;28;20418;-80
2022/03/22 07:04:33;;;;;;;49.58;35.03;;;6.10;85.20;;;;;;5098738;28;20044;-80
2022/03/22 07:07:00;;;;;;;50.33;35.40;;;6.10;85.60;;;;;;5081830;28;20369;-80
2022/03/22 07:09:25;;;;;;;54.67;37.63;;;6.20;85.50;;;;;;5099021;28;20387;-80
2022/03/22 07:11:52;;;;;;;50.10;37.03;;;6.30;85.50;;;;;;5081771;28;20032;-80
2022/03/22 07:14:19;;;;;;;58.83;38.30;;;6.40;85.70;;;;;;5081964;28;20069;-80
2022/03/22 07:16:48;;;;;;;56.78;39.08;;;6.50;85.70;;;;;;5081513;28;20050;-80
2022/03/22 07:19:20;;;;;;;54.53;36.38;;;6.60;85.60;;;;;;5082585;28;20040;-80
2022/03/22 07:21:46;;;;;;;51.60;35.78;;;6.60;85.00;;;;;;5098524;28;20040;-80
2022/03/22 07:24:13;;;;;;;52.80;37.00;;;6.70;85.10;;;;;;5081304;28;20062;-80
2022/03/22 07:26:40;;;;;;;56.20;37.92;;;6.90;85.30;;;;;;5081463;28;20043;-80
2022/03/22 07:29:07;;;;;;;51.50;36.45;;;7.00;85.30;;;;;;5081600;28;20058;-80
2022/03/22 07:31:38;;;;;;;51.47;36.38;;;7.00;85.50;;;;;;5081742;28;20066;-80
2022/03/22 07:34:12;;;;;;;54.55;37.55;;;7.10;85.30;;;;;;5081424;28;20035;-80
2022/03/22 07:36:39;;;;;;;49.20;37.00;;;7.20;85.30;;;;;;5098136;28;20535;-81
2022/03/22 07:39:09;;;;;;;53.75;36.83;;;7.20;85.00;;;;;;5098228;28;20111;-81
2022/03/22 07:41:36;;;;;;;55.67;39.22;;;7.30;84.70;;;;;;5098421;28;20392;-80
2022/03/22 07:44:03;;;;;;;54.60;39.72;;;7.40;84.90;;;;;;5081226;28;20051;-80
2022/03/22 07:46:30;;;;;;;60.28;44.47;;;7.50;84.80;;;;;;5081154;28;20043;-80
2022/03/22 07:52:57;;;;;;;57.40;40.08;;;7.50;85.00;;;;;;5098313;28;20421;-81
2022/03/22 07:54:26;;;;;;;69.07;45.65;;;7.70;84.80;;;;;;5069591;28;20043;-80
2022/03/22 07:56:52;;;;;;;60.78;43.55;;;7.90;84.80;;;;;;5080862;28;20054;-81
2022/03/22 07:59:18;;;;;;;64.95;43.17;;;8.00;84.90;;;;;;5097714;28;20039;-81
2022/03/22 08:01:44;;;;;;;55.40;39.78;;;8.10;84.80;;;;;;5079798;28;20028;-81
2022/03/22 08:04:09;;;;;;;59.95;43.85;;;8.10;84.80;;;;;;5080883;28;20118;-81
2022/03/22 08:06:35;;;;;;;56.85;41.97;;;8.30;85.00;;;;;;5081046;28;20474;-81
2022/03/22 08:09:01;;;;;;;62.38;42.60;;;8.30;85.00;;;;;;5080697;28;20042;-80
2022/03/22 08:11:27;;;;;;;56.10;42.30;;;8.40;84.80;;;;;;5064470;28;20040;-81
2022/03/22 08:13:53;;;;;;;57.47;40.97;;;8.50;85.20;;;;;;5047387;28;20403;-81
2022/03/22 08:16:18;;;;;;;59.33;40.58;;;8.60;84.90;;;;;;5064021;28;20040;-81
2022/03/22 08:18:44;;;;;;;55.60;39.20;;;8.70;84.60;;;;;;5097416;28;20031;-81
2022/03/22 08:21:10;;;;;;;51.67;39.95;;;8.90;84.60;;;;;;5063938;28;20122;-81
2022/03/22 08:23:36;;;;;;;55.60;40.70;;;9.00;84.30;;;;;;5080344;28;20040;-81
2022/03/22 08:26:02;;;;;;;55.60;37.88;;;9.20;84.30;;;;;;5080677;28;20058;-81
2022/03/22 08:28:27;;;;;;;58.08;40.95;;;9.40;83.90;;;;;;5047086;28;20036;-81
2022/03/22 08:30:53;;;;;;;56.17;41.17;;;9.60;83.60;;;;;;5063702;28;20047;-82
2022/03/22 08:33:19;;;;;;;49.55;35.63;;;9.80;83.30;;;;;;5080339;28;20054;-81
2022/03/22 08:35:47;;;;;;;42.63;32.97;;;10.00;83.00;;;;;;5046864;28;20040;-82
2022/03/22 08:38:15;;;;;;;49.55;35.92;;;10.00;81.40;;;;;;5097052;28;20047;-81
2022/03/22 08:40:41;;;;;;;49.08;34.08;;;10.10;80.00;;;;;;5080478;28;20369;-81
2022/03/22 08:43:08;;;;;;;44.25;34.17;;;10.30;79.60;;;;;;5063954;28;20518;-82
2022/03/22 08:45:34;;;;;;;46.85;34.88;;;10.40;79.40;;;;;;5079935;28;20039;-81
2022/03/22 08:48:09;;;;;;;46.05;33.75;;;10.50;79.50;;;;;;5080288;28;20078;-82
2022/03/22 08:50:42;;;;;;;50.63;33.28;;;10.60;78.20;;;;;;5080062;28;20047;-81
2022/03/22 08:53:08;;;;;;;50.92;35.50;;;10.70;78.50;;;;;;5097103;28;20051;-81
2022/03/22 08:55:34;;;;;;;48.47;35.25;;;10.80;76.90;;;;;;5096568;28;20546;-82
2022/03/22 08:58:06;;;;;;;45.15;34.10;;;10.90;77.50;;;;;;5080063;28;20031;-82
2022/03/22 09:00:37;;;;;;;52.97;36.70;;;11.00;77.00;;;;;;5096915;28;20118;-82
2022/03/22 09:03:04;;;;;;;47.47;37.20;;;11.00;77.50;;;;;;5079678;28;20476;-82
2022/03/22 09:08:15;;;;;;;;;;;11.30;77.00;;;;;;5082653;28;20128;-82
2022/03/22 09:10:41;;;;;;;50.17;35.20;;;11.40;76.30;;;;;;5096393;28;19969;-82
2022/03/22 09:13:08;;;;;;;48.45;33.00;;;11.60;76.40;;;;;;5079337;28;20039;-82
2022/03/22 09:15:37;;;;;;;48.55;35.80;;;11.70;76.30;;;;;;5096330;28;20035;-83
2022/03/22 09:18:04;;;;;;;45.90;33.25;;;11.80;75.50;;;;;;5079498;28;20119;-82
2022/03/22 09:20:32;;;;;;;47.53;35.40;;;11.90;75.10;;;;;;5096241;28;20036;-82
2022/03/22 09:23:01;;;;;;;48.53;35.83;;;12.00;75.40;;;;;;5063553;28;20054;-82
2022/03/22 09:25:30;;;;;;;49.10;36.75;;;12.10;75.40;;;;;;5075779;28;20117;-82
2022/03/22 09:27:56;;;;;;;48.85;35.33;;;12.30;75.20;;;;;;5075969;28;20399;-82
2022/03/22 09:30:23;;;;;;;44.17;34.55;;;12.30;75.20;;;;;;5092979;28;20523;-82
2022/03/22 09:32:50;;;;;;;47.22;35.78;;;12.50;74.70;;;;;;5076105;28;20040;-82
2022/03/22 09:35:19;;;;;;;44.60;34.30;;;12.60;74.80;;;;;;5076011;28;20044;-82
2022/03/22 09:37:47;;;;;;;50.00;43.05;;;12.70;74.80;;;;;;5059441;28;20036;-81
2022/03/22 09:40:14;;;;;;;46.63;36.03;;;12.70;74.40;;;;;;5075747;28;20392;-80
2022/03/22 09:42:42;;;;;;;44.17;34.40;;;12.90;74.30;;;;;;5075812;28;20496;-82
2022/03/22 09:45:10;;;;;;;51.00;41.38;;;13.00;74.00;;;;;;5092361;28;20044;-83
2022/03/22 09:47:41;;;;;;;39.63;31.15;;;13.20;73.40;;;;;;5075605;28;20040;-82
2022/03/22 09:50:08;;;;;;;42.17;31.33;;;13.30;73.00;;;;;;5075317;28;20044;-83
2022/03/22 09:52:38;;;;;;;43.35;31.73;;;13.40;73.20;;;;;;5059225;28;20040;-83
2022/03/22 09:55:06;;;;;;;44.63;31.90;;;13.60;72.20;;;;;;5075314;28;20048;-83
2022/03/22 09:57:32;;;;;;;44.60;32.00;;;13.80;71.00;;;;;;5075713;28;20058;-83
2022/03/22 09:59:58;;;;;;;38.92;31.83;;;13.90;71.00;;;;;;5092467;28;20040;-83
2022/03/22 10:02:32;;;;;;;47.63;33.83;;;14.00;70.40;;;;;;5092042;28;20115;-83
2022/03/22 10:04:58;;;;;;;43.35;32.67;;;14.20;69.80;;;;;;5092443;28;20392;-83
2022/03/22 10:07:25;;;;;;;42.20;33.78;;;14.40;70.00;;;;;;5092282;28;20110;-83
2022/03/22 10:09:52;;;;;;;40.88;32.95;;;14.50;70.10;;;;;;5075221;28;20036;-81
2022/03/22 10:12:34;;;;;;;42.25;33.65;;;14.60;69.60;;;;;;5092028;28;20073;-83
2022/03/22 10:15:12;;;;;;;45.25;34.80;;;14.70;67.90;;;;;;5075011;28;20044;-83
2022/03/22 10:17:39;;;;;;;45.58;34.08;;;14.90;68.80;;;;;;5058414;28;20549;-82
2022/03/22 10:20:07;;;;;;;43.03;32.53;;;15.00;68.70;;;;;;5092286;28;20059;-83
2022/03/22 10:22:34;;;;;;;39.90;32.22;;;15.20;68.50;;;;;;5058542;28;20040;-82
2022/03/22 10:25:03;;;;;;;43.35;32.15;;;15.20;67.60;;;;;;5091012;28;20389;-83
2022/03/22 10:27:35;;;;;;;41.10;31.65;;;15.40;67.50;;;;;;5091934;28;20066;-83
2022/03/22 10:30:05;;;;;;;41.65;31.58;;;15.50;67.10;;;;;;5092100;28;20047;-83
2022/03/22 10:32:37;;;;;;;37.92;31.63;;;15.70;66.90;;;;;;5075299;28;20392;-83
2022/03/22 10:35:10;;;;;;;39.72;30.58;;;15.90;67.20;;;;;;5075073;28;20446;-83
2022/03/22 10:37:37;;;;;;;41.45;32.00;;;16.00;66.20;;;;;;5074876;28;20040;-83
2022/03/22 10:40:04;;;;;;;40.42;32.10;;;16.20;66.10;;;;;;5074747;28;20480;-83
2022/03/22 10:42:32;;;;;;;41.28;32.20;;;16.30;65.90;;;;;;5075260;28;20036;-83
2022/03/22 10:44:58;;;;;;;42.45;31.45;;;16.40;65.40;;;;;;5074856;28;20480;-83
2022/03/22 10:47:27;;;;;;;38.15;29.83;;;16.40;64.80;;;;;;5058327;28;20446;-83
2022/03/22 10:50:08;;;;;;;44.70;31.02;;;16.50;64.70;;;;;;5091722;28;20106;-83
2022/03/22 10:52:37;;;;;;;42.67;32.08;;;16.60;63.60;;;;;;5075029;28;20071;-83
2022/03/22 10:55:03;;;;;;;38.10;30.98;;;16.80;64.20;;;;;;5074607;28;20051;-83
2022/03/22 10:57:32;;;;;;;39.53;30.10;;;16.90;63.50;;;;;;5058366;28;20361;-83
2022/03/22 11:00:05;;;;;;;40.25;30.40;;;17.10;63.10;;;;;;5074688;28;20039;-83
2022/03/22 11:02:34;;;;;;;39.03;29.75;;;17.30;62.50;;;;;;5074681;28;20028;-83
2022/03/22 11:05:03;;;;;;;35.75;29.30;;;17.40;61.90;;;;;;5091429;28;20122;-82
2022/03/22 11:07:33;;;;;;;38.72;28.60;;;17.50;61.20;;;;;;5091456;28;20395;-83
2022/03/22 11:09:59;;;;;;;39.50;31.48;;;17.70;59.90;;;;;;5074587;28;20039;-82
2022/03/22 11:12:29;;;;;;;35.20;28.73;;;17.80;59.60;;;;;;5041363;28;20044;-83
2022/03/22 11:14:57;;;;;;;40.10;28.95;;;18.00;59.50;;;;;;5075271;28;20036;-83
2022/03/22 11:17:25;;;;;;;36.47;28.83;;;18.00;59.50;;;;;;5041366;28;20040;-83
2022/03/22 11:19:51;;;;;;;36.25;27.75;;;18.20;58.70;;;;;;5091664;28;20047;-83
2022/03/22 11:22:18;;;;;;;35.65;29.00;;;18.20;56.90;;;;;;5074406;28;20412;-83
2022/03/22 11:24:44;;;;;;;37.80;28.35;;;18.40;58.20;;;;;;5057660;28;20056;-83
2022/03/22 11:27:12;;;;;;;33.42;26.35;;;18.50;57.00;;;;;;5075136;28;20066;-83
2022/03/22 11:29:40;;;;;;;35.92;29.10;;;18.50;55.70;;;;;;5057780;28;20527;-83
2022/03/22 11:34:55;;;;;;;38.15;27.90;;;18.80;55.10;;;;;;5091190;28;20044;-83
2022/03/22 11:37:33;;;;;;;31.83;26.67;;;18.70;55.30;;;;;;5078204;28;20036;-82
2022/03/22 11:42:54;;;;;;;37.40;28.17;;;18.90;54.60;;;;;;5080573;28;20093;-83
2022/03/22 11:45:21;;;;;;;33.95;26.90;;;19.10;55.30;;;;;;5078084;28;20044;-83
2022/03/22 11:47:51;;;;;;;37.10;26.55;;;19.20;55.20;;;;;;5078075;28;20388;-83
2022/03/22 11:50:19;;;;;;;33.05;27.20;;;19.30;55.20;;;;;;5077748;28;20100;-83
2022/03/22 11:52:48;;;;;;;32.28;25.60;;;19.50;54.30;;;;;;5078362;28;20101;-83
2022/03/22 11:55:22;;;;;;;39.53;28.33;;;19.60;54.20;;;;;;5077824;28;20043;-83
2022/03/22 11:57:49;;;;;;;34.05;25.58;;;19.70;53.20;;;;;;5077927;28;20404;-83
2022/03/22 12:00:21;;;;;;;33.65;25.95;;;19.70;52.50;;;;;;5077922;28;20055;-83
2022/03/22 12:02:53;;;;;;;31.92;26.75;;;19.90;53.20;;;;;;5077891;28;20123;-84
2022/03/22 12:05:20;;;;;;;33.80;25.00;;;19.90;51.50;;;;;;5094682;28;20055;-83
2022/03/22 12:07:47;;;;;;;31.45;25.75;;;20.00;52.00;;;;;;5077683;28;20134;-83
2022/03/22 12:10:17;;;;;;;32.38;27.38;;;20.10;52.00;;;;;;5060934;28;20155;-83
2022/03/22 12:12:51;;;;;;;32.78;26.63;;;20.30;52.30;;;;;;5094358;28;20051;-83
2022/03/22 12:15:21;;;;;;;31.00;25.90;;;20.40;52.20;;;;;;5094136;28;20047;-83
2022/03/22 12:17:47;;;;;;;31.60;24.75;;;20.60;51.10;;;;;;5077726;28;20483;-83
2022/03/22 12:20:15;;;;;;;30.23;25.05;;;20.50;49.90;;;;;;5061006;28;20054;-83
2022/03/22 12:22:44;;;;;;;32.28;24.50;;;20.50;50.00;;;;;;5060681;28;20043;-83
2022/03/22 12:25:12;;;;;;;28.27;24.10;;;20.70;50.30;;;;;;5077130;28;20404;-83
2022/03/22 12:27:56;;;;;;;34.80;25.55;;;20.90;51.00;;;;;;5077131;28;20108;-83
2022/03/22 12:30:23;;;;;;;28.70;22.17;;;21.10;49.20;;;;;;5077415;28;20047;-83
2022/03/22 12:32:51;;;;;;;27.63;21.98;;;21.00;49.30;;;;;;5077315;28;20054;-83
2022/03/22 12:35:17;;;;;;;26.45;20.67;;;21.00;48.50;;;;;;5093686;28;20130;-84
2022/03/22 12:37:43;;;;;;;26.40;21.63;;;21.20;47.90;;;;;;5077210;28;20036;-83
2022/03/22 12:40:09;;;;;;;25.50;20.40;;;21.20;46.80;;;;;;5043639;28;20510;-83
2022/03/22 12:42:35;;;;;;;27.58;23.40;;;21.00;46.90;;;;;;5076933;28;20040;-83
2022/03/22 12:45:01;;;;;;;27.48;22.25;;;21.00;47.60;;;;;;5076836;28;20039;-83
2022/03/22 12:47:27;;;;;;;28.80;21.90;;;20.90;47.50;;;;;;5076241;28;20122;-84
2022/03/22 12:49:53;;;;;;;28.08;22.63;;;21.20;48.10;;;;;;5060077;28;20039;-83
2022/03/22 12:52:18;;;;;;;26.58;22.02;;;21.40;47.90;;;;;;5076610;28;20036;-83
2022/03/22 12:54:45;;;;;;;25.17;21.73;;;21.60;46.40;;;;;;5076864;28;20071;-83
2022/03/22 12:57:14;;;;;;;26.42;21.90;;;21.70;46.10;;;;;;5059775;28;20078;-83
2022/03/22 12:59:40;;;;;;;27.65;21.73;;;21.80;46.10;;;;;;5076539;28;20068;-84
2022/03/22 13:02:06;;;;;;;28.05;22.92;;;21.60;45.90;;;;;;5093591;28;20047;-83
2022/03/22 13:04:47;;;;;;;26.50;21.40;;;21.90;46.20;;;;;;5093443;28;20039;-83